Time;durP1;ratioP1;P1;durP2;ratioP2;P2;SDS_P1;SDS_P2;PMS_P1;PMS_P2;Temp;Humidity;BMP_temperature;BMP_pressure;BME280_temperature;BME280_humidity;BME280_pressure;Samples;Min_cycle;Max_cycle;Signal;HPM_P1;HPM_P2
2021/06/29 00:03:06;;;;;;;3.00;2.40;;;;;;;18.52;100.00;98845.41;10460377;28;20203;-79
2021/06/29 00:08:25;;;;;;;2.50;2.30;;;;;;;18.48;100.00;98819.69;10460903;28;20203;-80
2021/06/29 00:13:45;;;;;;;2.63;2.43;;;;;;;18.43;100.00;98816.72;10460696;28;20222;-79
2021/06/29 00:19:04;;;;;;;2.43;2.23;;;;;;;18.37;100.00;98815.78;10459893;28;20262;-79
2021/06/29 00:24:23;;;;;;;3.47;3.17;;;;;;;18.26;100.00;98795.13;10460878;28;20167;-79
2021/06/29 00:29:42;;;;;;;2.77;2.57;;;;;;;18.35;100.00;98795.97;10459951;28;20211;-79
2021/06/29 00:35:01;;;;;;;3.30;2.83;;;;;;;18.23;100.00;98804.41;10459232;28;20171;-79
2021/06/29 00:40:20;;;;;;;3.67;3.37;;;;;;;18.21;100.00;98802.09;10459684;28;20179;-79
2021/06/29 00:45:39;;;;;;;4.10;2.40;;;;;;;18.20;100.00;98796.94;10459596;28;20203;-79
2021/06/29 00:50:58;;;;;;;3.13;2.93;;;;;;;18.19;100.00;98798.16;10457592;28;20179;-79
2021/06/29 00:56:19;;;;;;;2.63;2.43;;;;;;;18.23;100.00;98780.09;10459656;28;20175;-79
2021/06/29 01:01:38;;;;;;;2.77;2.53;;;;;;;18.41;100.00;98767.03;10458219;28;20705;-79
2021/06/29 01:06:58;;;;;;;2.30;2.17;;;;;;;18.38;100.00;98777.56;10458833;28;20202;-79
2021/06/29 01:12:17;;;;;;;3.40;2.57;;;;;;;18.31;100.00;98770.25;10457705;28;20180;-79
2021/06/29 01:17:36;;;;;;;2.80;2.60;;;;;;;18.25;100.00;98762.97;10457401;28;20183;-79
2021/06/29 01:23:04;;;;;;;3.23;2.97;;;;;;;18.24;100.00;98773.31;10456954;28;20179;-80
2021/06/29 01:28:29;;;;;;;2.47;2.27;;;;;;;18.22;100.00;98759.06;10456743;28;20243;-79
2021/06/29 01:33:49;;;;;;;2.50;2.30;;;;;;;18.26;100.00;98772.84;10456959;28;20171;-80
2021/06/29 01:39:12;;;;;;;2.80;2.60;;;;;;;18.30;100.00;98748.44;10457917;28;20625;-80
2021/06/29 01:44:34;;;;;;;3.60;3.00;;;;;;;18.01;100.00;98778.59;10456312;28;20183;-80
2021/06/29 01:49:54;;;;;;;5.33;2.80;;;;;;;17.89;100.00;98763.50;10455687;28;20294;-79
2021/06/29 01:55:13;;;;;;;2.60;2.40;;;;;;;17.93;100.00;98766.94;10456437;28;20535;-79
2021/06/29 02:00:33;;;;;;;3.03;2.80;;;;;;;18.08;100.00;98764.41;10456564;28;20191;-79
2021/06/29 02:05:52;;;;;;;4.50;3.13;;;;;;;18.23;100.00;98773.78;10455506;28;20599;-79
2021/06/29 02:11:11;;;;;;;3.80;2.60;;;;;;;18.13;100.00;98788.84;10455928;28;20245;-79
2021/06/29 02:16:30;;;;;;;3.53;3.23;;;;;;;18.14;100.00;98793.19;10414862;28;20219;-79
2021/06/29 02:21:49;;;;;;;3.10;2.80;;;;;;;17.94;100.00;98792.75;10415322;28;20199;-79
2021/06/29 02:27:08;;;;;;;3.43;3.13;;;;;;;17.91;100.00;98797.22;10414773;28;20594;-79
2021/06/29 02:32:27;;;;;;;3.97;3.67;;;;;;;17.89;100.00;98787.78;10412461;28;20172;-79
2021/06/29 02:37:46;;;;;;;4.33;4.03;;;;;;;17.99;100.00;98779.03;10413618;28;20180;-79
2021/06/29 02:43:05;;;;;;;3.47;3.17;;;;;;;18.11;100.00;98769.81;10427998;28;20183;-79
2021/06/29 02:48:24;;;;;;;3.37;3.07;;;;;;;17.89;100.00;98762.75;10454364;28;20199;-79
2021/06/29 02:53:43;;;;;;;4.20;3.60;;;;;;;17.81;100.00;98758.69;10454392;28;20618;-79
2021/06/29 02:59:02;;;;;;;4.27;3.97;;;;;;;17.83;100.00;98759.75;10455653;28;20549;-79
2021/06/29 03:04:21;;;;;;;4.90;4.20;;;;;;;18.01;100.00;98771.00;10454803;28;20213;-79
2021/06/29 03:09:40;;;;;;;4.97;4.40;;;;;;;17.87;100.00;98787.47;10463192;28;20207;-79
2021/06/29 03:15:01;;;;;;;3.93;3.63;;;;;;;17.74;100.00;98795.13;10462960;28;20697;-79
2021/06/29 03:20:20;;;;;;;4.93;4.43;;;;;;;17.65;100.00;98795.06;10462127;28;20179;-79
2021/06/29 03:25:39;;;;;;;6.20;3.83;;;;;;;17.52;100.00;98788.00;10462140;28;20203;-79
2021/06/29 03:30:58;;;;;;;5.50;5.00;;;;;;;17.43;100.00;98788.72;10461937;28;20183;-79
2021/06/29 03:36:17;;;;;;;4.53;4.10;;;;;;;17.45;100.00;98802.16;10461756;28;20518;-79
2021/06/29 03:41:36;;;;;;;8.07;5.33;;;;;;;17.45;100.00;98804.94;10462355;28;20175;-79
2021/06/29 03:46:55;;;;;;;7.40;5.70;;;;;;;17.50;100.00;98821.84;10461035;28;20214;-79
2021/06/29 03:52:13;;;;;;;13.27;6.53;;;;;;;17.60;100.00;98829.78;10462120;28;20172;-79
2021/06/29 03:57:33;;;;;;;14.60;6.30;;;;;;;17.67;100.00;98837.88;10460531;28;20179;-79
2021/06/29 04:02:52;;;;;;;10.50;6.60;;;;;;;17.71;100.00;98857.22;10459392;28;20179;-79
2021/06/29 04:08:10;;;;;;;10.03;7.30;;;;;;;17.81;100.00;98851.28;10461039;28;20665;-79
2021/06/29 04:13:29;;;;;;;10.57;6.40;;;;;;;17.90;100.00;98842.22;10460920;28;20219;-79
2021/06/29 04:18:48;;;;;;;8.73;7.53;;;;;;;17.97;100.00;98828.03;10458644;28;20187;-79
2021/06/29 04:24:08;;;;;;;8.33;6.47;;;;;;;18.04;100.00;98825.00;10459025;28;20673;-78
2021/06/29 04:29:27;;;;;;;9.13;6.07;;;;;;;18.18;100.00;98830.00;10459726;28;20210;-78
2021/06/29 04:34:46;;;;;;;7.87;6.40;;;;;;;18.15;100.00;98820.56;10458412;28;20191;-78
2021/06/29 04:40:06;;;;;;;6.77;5.30;;;;;;;18.07;100.00;98808.16;10459399;28;20179;-78
2021/06/29 04:45:26;;;;;;;6.00;4.67;;;;;;;18.06;100.00;98805.84;10460147;28;20554;-78
2021/06/29 04:50:45;;;;;;;9.10;6.20;;;;;;;17.94;100.00;98809.44;10458654;28;20195;-79
2021/06/29 04:56:16;;;;;;;5.83;4.80;;;;;;;17.99;100.00;98801.31;10459730;28;20184;-78
2021/06/29 05:01:35;;;;;;;7.63;5.23;;;;;;;18.13;100.00;98788.84;10458037;28;20208;-78
2021/06/29 05:06:54;;;;;;;6.00;5.20;;;;;;;18.34;100.00;98799.19;10458811;28;20207;-79
2021/06/29 05:12:13;;;;;;;7.10;5.23;;;;;;;18.41;100.00;98794.13;10458096;28;20179;-79
2021/06/29 05:17:33;;;;;;;9.73;5.17;;;;;;;18.50;100.00;98803.28;10456813;28;20231;-79
2021/06/29 05:22:52;;;;;;;7.43;5.33;;;;;;;18.60;100.00;98788.16;10451344;28;20200;-78
2021/06/29 05:28:11;;;;;;;8.20;5.50;;;;;;;18.68;100.00;98781.06;10434871;28;20204;-78
2021/06/29 05:33:30;;;;;;;5.40;4.90;;;;;;;18.75;100.00;98780.00;10436061;28;20250;-78
2021/06/29 05:38:49;;;;;;;9.70;5.47;;;;;;;18.79;100.00;98784.19;10454548;28;20203;-78
2021/06/29 05:44:09;;;;;;;5.90;5.00;;;;;;;18.81;100.00;98789.28;10455140;28;20183;-79
2021/06/29 05:49:28;;;;;;;7.00;4.93;;;;;;;18.89;100.00;98796.91;10453252;28;20203;-78
2021/06/29 05:54:47;;;;;;;7.20;5.80;;;;;;;19.08;100.00;98792.16;10454502;28;20183;-78
2021/06/29 06:00:09;;;;;;;6.53;5.33;;;;;;;19.07;100.00;98791.34;10453084;28;20596;-78
2021/06/29 06:05:28;;;;;;;6.93;5.43;;;;;;;19.12;100.00;98790.00;10428786;28;20192;-79
2021/06/29 06:10:46;;;;;;;6.37;5.53;;;;;;;19.20;100.00;98788.47;10455282;28;20219;-78
2021/06/29 06:16:07;;;;;;;7.97;5.63;;;;;;;19.20;100.00;98778.09;10455641;28;20708;-78
2021/06/29 06:21:26;;;;;;;6.33;5.73;;;;;;;19.31;100.00;98767.22;10452958;28;20191;-78
2021/06/29 06:26:45;;;;;;;8.13;4.40;;;;;;;19.45;100.00;98758.25;10459249;28;20234;-78
2021/06/29 06:32:05;;;;;;;5.40;4.90;;;;;;;19.53;100.00;98756.72;10454227;28;20206;-78
2021/06/29 06:37:24;;;;;;;6.93;4.77;;;;;;;19.56;100.00;98762.13;10456237;28;20171;-78
2021/06/29 06:42:43;;;;;;;4.80;4.40;;;;;;;19.51;100.00;98768.31;10455071;28;20685;-78
2021/06/29 06:48:02;;;;;;;11.57;5.80;;;;;;;19.47;100.00;98780.88;10451739;28;20214;-78
2021/06/29 06:53:21;;;;;;;7.40;5.80;;;;;;;19.56;100.00;98783.66;10455452;28;20187;-78
2021/06/29 06:58:44;;;;;;;7.27;5.87;;;;;;;19.65;100.00;98789.25;10454364;28;20196;-78
2021/06/29 07:04:04;;;;;;;8.93;6.50;;;;;;;19.65;100.00;98780.88;10454374;28;20171;-78
2021/06/29 07:09:23;;;;;;;6.30;5.70;;;;;;;19.68;100.00;98783.50;10453586;28;20215;-78
2021/06/29 07:14:42;;;;;;;6.40;5.77;;;;;;;19.91;100.00;98773.69;10454391;28;20223;-78
2021/06/29 07:20:03;;;;;;;6.00;4.87;;;;;;;20.11;100.00;98775.53;10453799;28;20183;-78
2021/06/29 07:25:21;;;;;;;5.90;5.40;;;;;;;20.27;100.00;98769.56;10448649;28;20183;-78
2021/06/29 07:30:41;;;;;;;10.90;5.40;;;;;;;20.23;100.00;98771.78;10453436;28;20183;-79
2021/06/29 07:36:01;;;;;;;5.80;5.20;;;;;;;20.29;100.00;98755.91;10464583;28;20257;-79
2021/06/29 07:41:20;;;;;;;5.23;4.63;;;;;;;20.34;100.00;98746.91;10454415;28;20211;-78
2021/06/29 07:46:38;;;;;;;5.60;5.00;;;;;;;20.56;100.00;98752.22;10441846;28;20203;-78
2021/06/29 07:51:58;;;;;;;6.57;5.80;;;;;;;20.51;100.00;98752.88;10456278;28;20222;-79
2021/06/29 07:57:16;;;;;;;9.17;5.90;;;;;;;20.39;100.00;98757.44;10461099;28;20653;-79
2021/06/29 08:02:36;;;;;;;6.10;5.60;;;;;;;20.20;100.00;98739.19;10459198;28;20180;-78
2021/06/29 08:07:55;;;;;;;12.80;5.10;;;;;;;20.13;100.00;98749.94;10437179;28;20219;-78
2021/06/29 08:13:14;;;;;;;5.20;4.70;;;;;;;19.99;100.00;98738.66;10461151;28;20219;-78
2021/06/29 08:18:34;;;;;;;5.03;4.63;;;;;;;20.03;100.00;98729.63;10459716;28;20187;-78
2021/06/29 08:23:53;;;;;;;4.17;3.87;;;;;;;20.17;100.00;98736.56;10458257;28;20722;-78
2021/06/29 08:29:12;;;;;;;7.33;5.30;;;;;;;20.54;100.00;98723.97;10437634;28;20207;-78
2021/06/29 08:34:31;;;;;;;10.63;5.20;;;;;;;21.06;100.00;98712.94;10458890;28;20180;-78
2021/06/29 08:39:52;;;;;;;8.37;5.50;;;;;;;21.80;100.00;98716.16;10459844;28;20262;-78
2021/06/29 08:45:13;;;;;;;5.23;4.83;;;;;;;22.75;100.00;98710.28;10459222;28;20219;-79
2021/06/29 08:50:34;;;;;;;5.73;5.13;;;;;;;23.72;100.00;98695.13;10457563;28;20183;-78
2021/06/29 08:55:54;;;;;;;6.50;5.90;;;;;;;23.82;100.00;98695.75;10458114;28;20607;-78
2021/06/29 09:01:14;;;;;;;5.63;5.10;;;;;;;23.57;100.00;98693.69;10458842;28;20191;-78
2021/06/29 09:06:38;;;;;;;5.03;4.63;;;;;;;24.19;100.00;98697.34;10456561;28;20293;-78
2021/06/29 09:11:57;;;;;;;5.47;4.97;;;;;;;25.40;100.00;98704.47;10459244;28;20638;-78
2021/06/29 09:17:19;;;;;;;5.80;5.40;;;;;;;24.73;100.00;98696.19;10455830;28;20223;-79
2021/06/29 09:22:38;;;;;;;5.03;4.60;;;;;;;24.12;100.00;98697.03;10457748;28;20211;-79
2021/06/29 09:27:57;;;;;;;4.70;4.40;;;;;;;23.94;100.00;98694.59;10458061;28;20235;-78
2021/06/29 09:33:34;;;;;;;6.57;4.10;;;;;;;24.11;100.00;98707.50;10456084;28;20172;-78
2021/06/29 09:38:55;;;;;;;5.07;4.50;;;;;;;24.67;100.00;98675.72;10459587;28;20179;-78
2021/06/29 09:44:24;;;;;;;5.63;4.50;;;;;;;25.32;100.00;98695.72;10416637;28;20591;-78
2021/06/29 09:49:43;;;;;;;4.13;3.73;;;;;;;25.58;100.00;98703.97;10413594;28;20211;-77
2021/06/29 09:55:01;;;;;;;5.60;5.13;;;;;;;26.84;99.84;98685.03;10416137;28;20180;-77
2021/06/29 10:00:40;;;;;;;5.30;4.80;;;;;;;26.87;90.78;98684.75;10416101;28;20526;-78
2021/06/29 10:06:07;;;;;;;4.27;3.97;;;;;;;26.70;96.86;98681.19;10413407;28;20235;-77
2021/06/29 10:11:28;;;;;;;4.50;4.20;;;;;;;28.31;68.36;98661.53;10449971;28;20175;-78
2021/06/29 10:16:49;;;;;;;3.97;3.67;;;;;;;28.67;61.55;98628.22;10454100;28;20258;-80
2021/06/29 10:22:10;;;;;;;4.13;3.83;;;;;;;29.71;56.12;98621.94;10456622;28;20175;-78
2021/06/29 10:27:29;;;;;;;4.00;3.60;;;;;;;29.66;54.45;98613.50;10455802;28;20214;-79
2021/06/29 10:32:49;;;;;;;3.60;3.40;;;;;;;30.60;54.52;98607.75;10482301;28;20183;-78
2021/06/29 10:38:10;;;;;;;3.33;3.13;;;;;;;31.60;54.19;98611.56;10483280;28;20183;-78
2021/06/29 10:43:33;;;;;;;3.83;3.47;;;;;;;31.89;48.06;98601.78;10456012;28;20175;-79
2021/06/29 10:48:52;;;;;;;4.27;3.93;;;;;;;32.02;47.01;98605.34;10453235;28;20203;-79
2021/06/29 10:54:40;;;;;;;3.30;3.10;;;;;;;29.92;52.93;98602.25;10455866;28;20171;-80
2021/06/29 10:59:59;;;;;;;5.23;3.67;;;;;;;30.11;53.46;98598.84;10454688;28;20579;-79
2021/06/29 11:05:23;;;;;;;2.93;2.70;;;;;;;30.70;49.97;98595.41;10453120;28;20188;-80
2021/06/29 11:10:45;;;;;;;4.07;3.10;;;;;;;31.80;52.24;98588.84;10455472;28;20187;-78
2021/06/29 11:16:04;;;;;;;3.10;2.90;;;;;;;32.54;44.77;98576.53;10454812;28;20689;-80
2021/06/29 11:21:23;;;;;;;3.40;3.20;;;;;;;32.15;48.71;98576.06;10453090;28;20661;-78
2021/06/29 11:26:43;;;;;;;4.17;3.50;;;;;;;32.81;48.84;98569.28;10458612;28;20210;-79
2021/06/29 11:32:28;;;;;;;3.10;2.90;;;;;;;34.30;43.29;98566.84;10460822;28;20182;-79
2021/06/29 11:38:33;;;;;;;2.47;2.37;;;;;;;34.62;39.88;98564.13;10462037;28;20186;-79
2021/06/29 11:43:57;;;;;;;2.80;2.57;;;;;;;33.97;40.03;98553.69;10459605;28;20649;-80
2021/06/29 11:49:25;;;;;;;2.73;2.50;;;;;;;34.40;41.42;98542.81;10460649;28;20206;-80
2021/06/29 11:54:49;;;;;;;2.70;2.50;;;;;;;35.22;41.69;98531.13;10462040;28;20570;-79
2021/06/29 12:00:26;;;;;;;2.70;2.57;;;;;;;34.88;38.76;98532.97;10459393;28;20796;-79
2021/06/29 12:05:46;;;;;;;2.80;2.60;;;;;;;34.25;39.05;98524.94;10460032;28;20195;-76
2021/06/29 12:11:06;;;;;;;3.83;3.33;;;;;;;34.14;37.72;98523.25;10461502;28;20175;-80
2021/06/29 12:16:27;;;;;;;3.27;3.07;;;;;;;34.91;38.66;98505.34;10460692;28;20297;-79
2021/06/29 12:21:50;;;;;;;2.80;2.60;;;;;;;35.14;37.46;98489.63;10459535;28;20190;-79
2021/06/29 12:27:18;;;;;;;3.13;2.90;;;;;;;32.98;42.26;98481.97;10459552;28;20290;-80
2021/06/29 12:32:41;;;;;;;3.47;2.97;;;;;;;33.70;43.72;98492.59;10459453;28;20534;-79
2021/06/29 12:38:03;;;;;;;3.40;3.20;;;;;;;31.23;44.92;98486.03;10459685;28;20641;-80
2021/06/29 12:43:22;;;;;;;3.37;3.07;;;;;;;32.67;46.00;98459.63;10458910;28;20194;-80
2021/06/29 12:48:55;;;;;;;3.93;3.50;;;;;;;33.85;41.87;98452.63;10457006;28;20207;-81
2021/06/29 12:54:18;;;;;;;3.27;3.07;;;;;;;33.83;39.81;98437.41;10458657;28;20210;-81
2021/06/29 12:59:41;;;;;;;3.33;3.13;;;;;;;33.85;37.91;98438.34;10458151;28;20183;-80
2021/06/29 13:05:02;;;;;;;5.67;3.07;;;;;;;33.86;40.98;98433.41;10457558;28;20179;-80
2021/06/29 13:10:27;;;;;;;3.00;2.80;;;;;;;34.56;39.14;98421.47;10457762;28;20198;-80
2021/06/29 13:15:51;;;;;;;3.33;3.07;;;;;;;35.19;35.67;98420.75;10485716;28;20647;-79
2021/06/29 13:21:27;;;;;;;3.07;2.87;;;;;;;33.56;37.54;98419.16;10456012;28;20638;-79
2021/06/29 13:27:00;;;;;;;3.00;2.80;;;;;;;33.45;37.70;98423.13;10457324;28;20206;-79
2021/06/29 13:32:21;;;;;;;2.27;2.17;;;;;;;34.96;34.90;98413.63;10457044;28;20179;-79
2021/06/29 13:37:45;;;;;;;2.50;2.40;;;;;;;36.01;35.21;98422.19;10456929;28;20179;-81
2021/06/29 13:43:10;;;;;;;2.87;2.67;;;;;;;34.76;33.25;98417.56;10457603;28;20178;-80
2021/06/29 13:48:36;;;;;;;2.60;2.40;;;;;;;30.89;39.05;98419.91;10421259;28;20650;-81
2021/06/29 13:54:19;;;;;;;2.40;2.00;;;;;;;31.99;37.14;98403.63;10416297;28;20204;-80
2021/06/29 13:59:40;;;;;;;10.57;2.23;;;;;;;30.99;36.04;98390.47;10416045;28;20180;-80
2021/06/29 14:04:58;;;;;;;2.23;2.03;;;;;;;31.74;35.82;98374.81;10433377;28;20270;-79
2021/06/29 14:10:25;;;;;;;2.30;2.13;;;;;;;31.11;38.16;98374.72;10441768;28;20207;-79
2021/06/29 14:15:44;;;;;;;2.50;2.30;;;;;;;31.09;37.29;98373.75;10413698;28;20223;-80
2021/06/29 14:21:15;;;;;;;2.17;1.90;;;;;;;33.90;34.24;98357.50;10415416;28;20226;-81
2021/06/29 14:26:35;;;;;;;2.87;2.67;;;;;;;34.55;34.25;98347.75;10454594;28;20233;-80
2021/06/29 14:31:54;;;;;;;2.63;2.43;;;;;;;35.24;32.97;98353.97;10454135;28;20261;-81
2021/06/29 14:37:12;;;;;;;3.30;2.10;;;;;;;35.10;31.58;98363.41;10455256;28;20180;-80
2021/06/29 14:42:31;;;;;;;2.43;2.20;;;;;;;33.49;34.84;98357.91;10455837;28;20186;-79
2021/06/29 14:47:51;;;;;;;2.30;2.10;;;;;;;32.94;34.09;98361.13;10453573;28;20206;-80
2021/06/29 14:53:10;;;;;;;1.90;1.80;;;;;;;31.69;36.78;98349.41;10454462;28;20183;-80
2021/06/29 14:58:29;;;;;;;1.87;1.77;;;;;;;30.53;39.78;98355.72;10454809;28;20630;-78
2021/06/29 15:03:48;;;;;;;2.13;2.00;;;;;;;28.99;43.59;98358.00;10460735;28;20180;-78
2021/06/29 15:09:07;;;;;;;2.07;1.97;;;;;;;29.21;43.87;98377.44;10463555;28;20214;-78
2021/06/29 15:14:26;;;;;;;2.77;2.57;;;;;;;29.49;40.13;98358.66;10463197;28;20219;-79
2021/06/29 15:19:45;;;;;;;2.30;2.20;;;;;;;29.76;42.97;98343.19;10462175;28;20550;-79
2021/06/29 15:25:06;;;;;;;2.70;2.23;;;;;;;28.83;44.18;98333.56;10463339;28;20183;-79
2021/06/29 15:30:25;;;;;;;2.47;2.27;;;;;;;28.39;46.64;98350.47;10461693;28;20234;-79
2021/06/29 15:35:44;;;;;;;3.10;2.40;;;;;;;27.66;51.59;98370.91;10460808;28;20175;-79
2021/06/29 15:41:04;;;;;;;5.80;1.87;;;;;;;25.95;57.51;98429.09;10461604;28;20171;-81
2021/06/29 15:46:23;;;;;;;4.40;1.33;;;;;;;22.08;74.30;98449.22;10462707;28;20203;-80
2021/06/29 15:51:42;;;;;;;2.07;1.30;;;;;;;20.72;80.76;98466.69;10461404;28;20545;-80
2021/06/29 15:57:01;;;;;;;1.80;1.20;;;;;;;19.95;92.35;98509.84;10461968;28;20198;-79
2021/06/29 16:02:20;;;;;;;1.03;0.70;;;;;;;19.34;100.00;98532.75;10459498;28;20569;-80
2021/06/29 16:07:40;;;;;;;1.10;1.00;;;;;;;19.02;100.00;98496.44;10461130;28;20195;-80
2021/06/29 16:12:59;;;;;;;2.43;1.83;;;;;;;18.74;100.00;98520.03;10449482;28;20215;-82
2021/06/29 16:18:18;;;;;;;1.07;0.83;;;;;;;18.56;100.00;98531.22;10459651;28;20179;-81
2021/06/29 16:23:38;;;;;;;1.30;1.10;;;;;;;18.60;100.00;98522.72;10460524;28;20183;-81
2021/06/29 16:29:03;;;;;;;3.20;1.40;;;;;;;18.27;100.00;98526.56;10430984;28;20204;-80
2021/06/29 16:34:22;;;;;;;13.83;2.00;;;;;;;18.00;100.00;98566.25;10417366;28;20176;-79
2021/06/29 16:39:41;;;;;;;1.70;1.57;;;;;;;17.91;100.00;98554.34;10419268;28;20259;-80
2021/06/29 16:45:00;;;;;;;1.27;1.10;;;;;;;17.52;100.00;98577.41;10419116;28;20176;-79
2021/06/29 16:50:20;;;;;;;1.77;1.67;;;;;;;17.58;100.00;98597.81;10416934;28;20204;-80
2021/06/29 16:55:40;;;;;;;1.40;1.30;;;;;;;17.58;100.00;98589.47;10418947;28;20192;-79
2021/06/29 17:01:00;;;;;;;3.53;1.17;;;;;;;17.60;100.00;98590.56;10457093;28;20187;-79
2021/06/29 17:06:19;;;;;;;1.97;1.40;;;;;;;17.62;100.00;98595.66;10458094;28;20203;-79
2021/06/29 17:11:42;;;;;;;1.70;1.40;;;;;;;17.70;100.00;98594.16;10462175;28;20183;-80
2021/06/29 17:17:02;;;;;;;1.77;1.37;;;;;;;17.74;100.00;98600.34;10461468;28;20223;-80
2021/06/29 17:22:21;;;;;;;2.53;1.57;;;;;;;18.00;100.00;98588.53;10458608;28;20175;-80
2021/06/29 17:27:41;;;;;;;3.13;2.83;;;;;;;18.24;100.00;98577.63;10459308;28;20199;-78
2021/06/29 17:33:01;;;;;;;1.60;1.27;;;;;;;18.54;100.00;98569.91;10461106;28;20567;-78
2021/06/29 17:38:20;;;;;;;2.07;1.23;;;;;;;18.87;100.00;98558.88;10463361;28;20164;-78
2021/06/29 17:43:39;;;;;;;1.70;1.50;;;;;;;19.10;100.00;98553.47;10460221;28;20175;-78
2021/06/29 17:48:58;;;;;;;2.03;1.63;;;;;;;19.20;100.00;98549.41;10457425;28;20206;-78
2021/06/29 17:54:18;;;;;;;1.73;1.60;;;;;;;19.38;100.00;98543.78;10457775;28;20202;-78
2021/06/29 17:59:37;;;;;;;1.73;1.30;;;;;;;19.37;100.00;98547.81;10457051;28;20250;-78
2021/06/29 18:04:56;;;;;;;1.47;1.10;;;;;;;19.49;100.00;98538.44;10455897;28;20179;-79
2021/06/29 18:10:15;;;;;;;1.60;1.50;;;;;;;19.54;100.00;98513.47;10456495;28;20214;-78
2021/06/29 18:15:35;;;;;;;3.23;1.33;;;;;;;19.49;100.00;98555.19;10456838;28;20223;-78
2021/06/29 18:20:54;;;;;;;13.70;7.30;;;;;;;19.36;100.00;98572.13;10456913;28;20183;-81
2021/06/29 18:26:13;;;;;;;2.70;2.10;;;;;;;18.51;100.00;98626.53;10456761;28;20211;-80
2021/06/29 18:31:32;;;;;;;4.50;2.37;;;;;;;18.05;100.00;98623.34;10457709;28;20175;-81
2021/06/29 18:36:51;;;;;;;2.10;1.80;;;;;;;17.78;100.00;98606.53;10456269;28;20191;-80
2021/06/29 18:42:10;;;;;;;1.87;1.53;;;;;;;17.73;100.00;98593.25;10456182;28;20183;-81
2021/06/29 18:47:29;;;;;;;2.03;1.40;;;;;;;17.69;100.00;98598.94;10456957;28;20198;-79
2021/06/29 18:52:49;;;;;;;1.20;1.10;;;;;;;17.67;100.00;98595.06;10456878;28;20191;-79
2021/06/29 18:58:08;;;;;;;1.60;1.10;;;;;;;17.39;100.00;98584.28;10455805;28;20194;-81
2021/06/29 19:03:27;;;;;;;1.33;1.20;;;;;;;17.39;100.00;98579.50;10454442;28;20250;-80
2021/06/29 19:08:59;;;;;;;1.90;1.50;;;;;;;17.39;100.00;98568.38;10456786;28;20211;-80
2021/06/29 19:14:19;;;;;;;1.53;1.20;;;;;;;17.60;100.00;98575.88;10457771;28;20219;-81
2021/06/29 19:19:38;;;;;;;1.33;1.23;;;;;;;17.57;100.00;98562.13;10455729;28;20176;-81
2021/06/29 19:24:56;;;;;;;1.10;0.83;;;;;;;17.25;100.00;98563.34;10454749;28;20183;-80
2021/06/29 19:30:18;;;;;;;2.10;1.63;;;;;;;17.25;100.00;98548.66;10453911;28;20626;-80
2021/06/29 19:35:37;;;;;;;1.30;0.97;;;;;;;17.20;100.00;98566.72;10454007;28;20179;-80
2021/06/29 19:40:57;;;;;;;1.83;1.30;;;;;;;17.25;100.00;98563.34;10455295;28;20191;-78
2021/06/29 19:46:16;;;;;;;1.20;1.00;;;;;;;17.35;100.00;98562.19;10455744;28;20256;-78
2021/06/29 19:51:36;;;;;;;1.40;1.03;;;;;;;17.47;100.00;98563.31;10462684;28;20199;-78
2021/06/29 19:56:55;;;;;;;2.70;1.03;;;;;;;17.33;100.00;98563.84;10463810;28;20183;-78
2021/06/29 20:02:14;;;;;;;3.97;1.33;;;;;;;17.22;100.00;98564.22;10461377;28;20183;-78
2021/06/29 20:07:34;;;;;;;1.50;1.37;;;;;;;17.10;100.00;98583.78;10462119;28;20211;-78
2021/06/29 20:12:52;;;;;;;1.47;1.20;;;;;;;17.03;100.00;98584.84;10462078;28;20681;-78
2021/06/29 20:18:12;;;;;;;2.53;1.00;;;;;;;16.97;100.00;98589.41;10463088;28;20220;-78
2021/06/29 20:23:31;;;;;;;1.17;0.73;;;;;;;16.97;100.00;98583.84;10462550;28;20183;-78
2021/06/29 20:28:49;;;;;;;1.40;1.03;;;;;;;16.73;100.00;98572.88;10461411;28;20622;-78
2021/06/29 20:34:09;;;;;;;1.37;1.00;;;;;;;16.65;100.00;98577.94;10462913;28;20183;-78
2021/06/29 20:39:28;;;;;;;1.53;1.30;;;;;;;16.53;100.00;98600.19;10464008;28;20195;-78
2021/06/29 20:44:47;;;;;;;1.97;1.60;;;;;;;16.50;100.00;98609.41;10463308;28;20183;-78
2021/06/29 20:50:09;;;;;;;1.50;1.20;;;;;;;16.48;100.00;98612.66;10460960;28;20306;-79
2021/06/29 20:55:28;;;;;;;1.60;1.50;;;;;;;16.57;100.00;98617.50;10465861;28;20203;-78
2021/06/29 21:00:47;;;;;;;1.83;1.57;;;;;;;16.51;100.00;98624.84;10463910;28;20183;-78
2021/06/29 21:06:06;;;;;;;2.20;2.00;;;;;;;16.54;100.00;98626.75;10460304;28;20203;-78
2021/06/29 21:11:25;;;;;;;1.83;1.70;;;;;;;16.52;100.00;98615.28;10463998;28;20179;-79
2021/06/29 21:16:44;;;;;;;9.20;2.10;;;;;;;16.48;100.00;98614.63;10465161;28;20239;-78
2021/06/29 21:22:04;;;;;;;2.90;2.10;;;;;;;16.49;100.00;98589.22;10470808;28;20643;-79
2021/06/29 21:27:23;;;;;;;1.70;1.60;;;;;;;16.38;100.00;98580.47;10482403;28;20203;-78
2021/06/29 21:32:45;;;;;;;2.00;1.90;;;;;;;16.41;100.00;98576.00;10477972;28;20178;-79
2021/06/29 21:38:04;;;;;;;2.93;2.10;;;;;;;16.42;100.00;98570.03;10488555;28;20171;-79
2021/06/29 21:43:23;;;;;;;2.50;2.30;;;;;;;16.39;100.00;98572.94;10498116;28;20179;-79
2021/06/29 21:48:42;;;;;;;3.30;1.80;;;;;;;16.40;100.00;98563.34;10481691;28;20207;-78
2021/06/29 21:54:02;;;;;;;2.83;2.63;;;;;;;16.40;100.00;98580.81;10463228;28;20597;-78
2021/06/29 21:59:21;;;;;;;2.23;1.70;;;;;;;16.51;100.00;98581.22;10459635;28;20576;-78
2021/06/29 22:04:40;;;;;;;3.17;2.87;;;;;;;16.62;100.00;98581.59;10457602;28;20541;-78
2021/06/29 22:09:59;;;;;;;3.60;2.70;;;;;;;16.54;100.00;98596.94;10457570;28;20211;-78
2021/06/29 22:15:18;;;;;;;2.40;2.07;;;;;;;16.45;100.00;98596.88;10458094;28;20223;-78
2021/06/29 22:20:37;;;;;;;3.47;2.80;;;;;;;16.56;100.00;98611.16;10462076;28;20180;-78
2021/06/29 22:25:56;;;;;;;3.77;3.47;;;;;;;16.58;100.00;98627.38;10459501;28;20183;-79
2021/06/29 22:31:15;;;;;;;3.07;2.40;;;;;;;16.61;100.00;98632.81;10461149;28;20215;-79
2021/06/29 22:36:34;;;;;;;3.80;3.50;;;;;;;16.72;100.00;98630.44;10459532;28;20543;-78
2021/06/29 22:41:54;;;;;;;3.83;3.30;;;;;;;16.78;100.00;98620.28;10461089;28;20179;-78
2021/06/29 22:47:13;;;;;;;3.27;2.97;;;;;;;16.65;100.00;98621.56;10461141;28;20582;-78
2021/06/29 22:52:31;;;;;;;3.60;3.30;;;;;;;16.52;100.00;98610.50;10465475;28;20196;-78
2021/06/29 22:57:51;;;;;;;3.77;3.47;;;;;;;16.59;100.00;98601.16;10466061;28;20249;-78
2021/06/29 23:03:11;;;;;;;4.53;3.80;;;;;;;16.43;100.00;98598.56;10464339;28;20532;-78
2021/06/29 23:08:30;;;;;;;4.03;3.47;;;;;;;16.44;100.00;98589.75;10462107;28;20250;-78
2021/06/29 23:13:49;;;;;;;5.20;3.70;;;;;;;16.47;100.00;98599.22;10472260;28;20230;-78
2021/06/29 23:19:08;;;;;;;4.30;3.90;;;;;;;16.41;100.00;98587.91;10467485;28;20243;-78
2021/06/29 23:24:27;;;;;;;4.43;4.00;;;;;;;16.32;100.00;98585.06;10480093;28;20179;-78
2021/06/29 23:29:46;;;;;;;4.13;3.53;;;;;;;16.15;100.00;98599.50;10477143;28;20211;-78
2021/06/29 23:35:06;;;;;;;10.70;4.80;;;;;;;16.03;100.00;98592.75;10479252;28;20187;-78
2021/06/29 23:40:26;;;;;;;7.17;4.97;;;;;;;16.03;100.00;98617.72;10492705;28;20247;-77
2021/06/29 23:45:44;;;;;;;3.93;3.60;;;;;;;16.08;100.00;98614.38;10474936;28;20181;-77
2021/06/29 23:51:04;;;;;;;5.50;3.90;;;;;;;16.14;100.00;98612.59;10473669;28;20222;-78
2021/06/29 23:56:24;;;;;;;4.03;3.63;;;;;;;16.27;100.00;98605.03;10476654;28;20242;-78
